Terminal Aerodrome Forecast
Issued by NWS

Home | Current Version | Previous Version | Text Only | Print | Product List | Glossary On
Versions: 1 2 3 4 5 6 7 8 9 10 11 12 13 14 15 16
000
FTUS41 KBTV 231135
TAFPBG
TAF
KPBG 231135Z 2312/2412 28006KT P6SM SKC
     FM240500 33007KT P6SM SCT070
     FM240700 30008KT P6SM BKN060
     FM240900 18008KT P6SM BKN045=

USA.gov is the U.S. government's official web portal to all federal, state and local government web resources and services.